sensor_id;sensor_type;location;lat;lon;timestamp;P1;durP1;ratioP1;P2;durP2;ratioP2
22486;SDS011;11410;53.046;10.512;2024-03-22T00:01:27;13.80;;;4.47;;
22486;SDS011;11410;53.046;10.512;2024-03-22T00:05:28;13.48;;;5.07;;
22486;SDS011;11410;53.046;10.512;2024-03-22T00:09:29;14.13;;;5.60;;
22486;SDS011;11410;53.046;10.512;2024-03-22T00:13:29;16.87;;;6.17;;
22486;SDS011;11410;53.046;10.512;2024-03-22T00:17:30;13.93;;;5.30;;
22486;SDS011;11410;53.046;10.512;2024-03-22T00:21:31;16.42;;;5.45;;
22486;SDS011;11410;53.046;10.512;2024-03-22T00:25:31;12.32;;;6.30;;
22486;SDS011;11410;53.046;10.512;2024-03-22T00:29:32;19.70;;;6.63;;
22486;SDS011;11410;53.046;10.512;2024-03-22T00:33:33;22.13;;;7.10;;
22486;SDS011;11410;53.046;10.512;2024-03-22T00:37:33;19.92;;;6.53;;
22486;SDS011;11410;53.046;10.512;2024-03-22T00:41:34;19.80;;;6.40;;
22486;SDS011;11410;53.046;10.512;2024-03-22T00:45:35;19.70;;;6.22;;
22486;SDS011;11410;53.046;10.512;2024-03-22T00:49:35;15.37;;;6.97;;
22486;SDS011;11410;53.046;10.512;2024-03-22T00:53:36;17.50;;;6.07;;
22486;SDS011;11410;53.046;10.512;2024-03-22T01:01:38;22.20;;;8.17;;
22486;SDS011;11410;53.046;10.512;2024-03-22T01:05:38;20.77;;;6.83;;
22486;SDS011;11410;53.046;10.512;2024-03-22T01:13:40;16.50;;;6.57;;
22486;SDS011;11410;53.046;10.512;2024-03-22T01:17:41;20.35;;;7.75;;
22486;SDS011;11410;53.046;10.512;2024-03-22T01:25:43;18.33;;;7.40;;
22486;SDS011;11410;53.046;10.512;2024-03-22T01:29:46;21.50;;;9.00;;
22486;SDS011;11410;53.046;10.512;2024-03-22T01:33:47;21.77;;;8.63;;
22486;SDS011;11410;53.046;10.512;2024-03-22T01:37:47;21.87;;;9.90;;
22486;SDS011;11410;53.046;10.512;2024-03-22T01:41:48;29.63;;;9.07;;
22486;SDS011;11410;53.046;10.512;2024-03-22T01:45:49;22.88;;;9.20;;
22486;SDS011;11410;53.046;10.512;2024-03-22T01:49:50;22.73;;;7.40;;
22486;SDS011;11410;53.046;10.512;2024-03-22T01:53:51;20.42;;;8.02;;
22486;SDS011;11410;53.046;10.512;2024-03-22T02:01:53;23.70;;;8.70;;
22486;SDS011;11410;53.046;10.512;2024-03-22T02:05:54;37.13;;;10.63;;
22486;SDS011;11410;53.046;10.512;2024-03-22T02:09:54;24.40;;;9.37;;
22486;SDS011;11410;53.046;10.512;2024-03-22T02:13:54;32.27;;;9.67;;
22486;SDS011;11410;53.046;10.512;2024-03-22T02:17:55;28.97;;;10.63;;
22486;SDS011;11410;53.046;10.512;2024-03-22T02:21:56;23.13;;;9.93;;
22486;SDS011;11410;53.046;10.512;2024-03-22T02:25:56;28.53;;;10.23;;
22486;SDS011;11410;53.046;10.512;2024-03-22T02:30:15;27.88;;;11.30;;
22486;SDS011;11410;53.046;10.512;2024-03-22T02:34:16;23.70;;;9.60;;
22486;SDS011;11410;53.046;10.512;2024-03-22T02:38:16;25.03;;;10.83;;
22486;SDS011;11410;53.046;10.512;2024-03-22T02:42:17;27.23;;;9.35;;
22486;SDS011;11410;53.046;10.512;2024-03-22T02:46:23;24.90;;;9.70;;
22486;SDS011;11410;53.046;10.512;2024-03-22T02:50:24;30.10;;;10.67;;
22486;SDS011;11410;53.046;10.512;2024-03-22T02:54:24;29.52;;;13.00;;
22486;SDS011;11410;53.046;10.512;2024-03-22T02:58:25;27.20;;;11.17;;
22486;SDS011;11410;53.046;10.512;2024-03-22T03:02:25;27.13;;;10.63;;
22486;SDS011;11410;53.046;10.512;2024-03-22T03:06:26;35.63;;;11.83;;
22486;SDS011;11410;53.046;10.512;2024-03-22T03:10:26;29.07;;;11.90;;
22486;SDS011;11410;53.046;10.512;2024-03-22T03:14:27;25.80;;;11.13;;
22486;SDS011;11410;53.046;10.512;2024-03-22T03:18:27;40.10;;;13.10;;
22486;SDS011;11410;53.046;10.512;2024-03-22T03:22:28;31.90;;;12.53;;
22486;SDS011;11410;53.046;10.512;2024-03-22T03:26:28;31.97;;;11.53;;
22486;SDS011;11410;53.046;10.512;2024-03-22T03:30:29;30.85;;;11.52;;
22486;SDS011;11410;53.046;10.512;2024-03-22T03:34:29;27.80;;;12.77;;
22486;SDS011;11410;53.046;10.512;2024-03-22T03:38:30;31.00;;;12.53;;
22486;SDS011;11410;53.046;10.512;2024-03-22T03:42:30;33.80;;;12.55;;
22486;SDS011;11410;53.046;10.512;2024-03-22T03:46:31;31.43;;;12.70;;
22486;SDS011;11410;53.046;10.512;2024-03-22T03:50:31;30.20;;;11.93;;
22486;SDS011;11410;53.046;10.512;2024-03-22T03:54:32;33.03;;;13.27;;
22486;SDS011;11410;53.046;10.512;2024-03-22T03:58:33;32.40;;;13.18;;
22486;SDS011;11410;53.046;10.512;2024-03-22T04:02:33;38.27;;;14.47;;
22486;SDS011;11410;53.046;10.512;2024-03-22T04:06:33;37.90;;;14.30;;
22486;SDS011;11410;53.046;10.512;2024-03-22T04:10:34;31.73;;;13.18;;
22486;SDS011;11410;53.046;10.512;2024-03-22T04:14:35;35.07;;;15.60;;
22486;SDS011;11410;53.046;10.512;2024-03-22T04:18:35;39.63;;;15.53;;
22486;SDS011;11410;53.046;10.512;2024-03-22T04:22:36;37.90;;;13.40;;
22486;SDS011;11410;53.046;10.512;2024-03-22T04:26:37;48.05;;;14.35;;
22486;SDS011;11410;53.046;10.512;2024-03-22T04:30:37;36.37;;;14.27;;
22486;SDS011;11410;53.046;10.512;2024-03-22T04:34:41;43.77;;;15.40;;
22486;SDS011;11410;53.046;10.512;2024-03-22T04:38:41;44.72;;;15.27;;
22486;SDS011;11410;53.046;10.512;2024-03-22T04:42:42;49.28;;;15.98;;
22486;SDS011;11410;53.046;10.512;2024-03-22T04:46:42;41.87;;;14.77;;
22486;SDS011;11410;53.046;10.512;2024-03-22T04:50:44;41.83;;;15.63;;
22486;SDS011;11410;53.046;10.512;2024-03-22T04:54:44;51.95;;;17.85;;
22486;SDS011;11410;53.046;10.512;2024-03-22T04:58:45;49.53;;;15.83;;
22486;SDS011;11410;53.046;10.512;2024-03-22T05:02:45;45.77;;;16.80;;
22486;SDS011;11410;53.046;10.512;2024-03-22T05:06:46;43.30;;;17.30;;
22486;SDS011;11410;53.046;10.512;2024-03-22T05:10:46;47.83;;;17.53;;
22486;SDS011;11410;53.046;10.512;2024-03-22T05:14:47;53.00;;;18.53;;
22486;SDS011;11410;53.046;10.512;2024-03-22T05:18:47;56.67;;;16.70;;
22486;SDS011;11410;53.046;10.512;2024-03-22T05:22:48;52.13;;;17.30;;
22486;SDS011;11410;53.046;10.512;2024-03-22T05:26:48;55.15;;;19.85;;
22486;SDS011;11410;53.046;10.512;2024-03-22T05:30:49;43.65;;;15.77;;
22486;SDS011;11410;53.046;10.512;2024-03-22T05:34:49;49.47;;;17.97;;
22486;SDS011;11410;53.046;10.512;2024-03-22T05:38:50;47.50;;;17.43;;
22486;SDS011;11410;53.046;10.512;2024-03-22T05:42:50;51.17;;;18.17;;
22486;SDS011;11410;53.046;10.512;2024-03-22T05:46:54;51.88;;;17.25;;
22486;SDS011;11410;53.046;10.512;2024-03-22T05:50:55;54.83;;;19.30;;
22486;SDS011;11410;53.046;10.512;2024-03-22T05:54:55;51.55;;;18.80;;
22486;SDS011;11410;53.046;10.512;2024-03-22T05:58:56;54.20;;;17.13;;
22486;SDS011;11410;53.046;10.512;2024-03-22T06:02:57;38.37;;;14.57;;
22486;SDS011;11410;53.046;10.512;2024-03-22T06:06:57;51.70;;;17.73;;
22486;SDS011;11410;53.046;10.512;2024-03-22T06:11:00;49.42;;;19.25;;
22486;SDS011;11410;53.046;10.512;2024-03-22T06:15:01;51.60;;;17.30;;
22486;SDS011;11410;53.046;10.512;2024-03-22T06:19:02;58.72;;;19.88;;
22486;SDS011;11410;53.046;10.512;2024-03-22T06:23:03;66.55;;;19.17;;
22486;SDS011;11410;53.046;10.512;2024-03-22T06:27:04;60.47;;;18.20;;
22486;SDS011;11410;53.046;10.512;2024-03-22T06:31:04;66.57;;;20.83;;
22486;SDS011;11410;53.046;10.512;2024-03-22T06:35:05;64.70;;;20.00;;
22486;SDS011;11410;53.046;10.512;2024-03-22T06:39:05;62.78;;;19.55;;
22486;SDS011;11410;53.046;10.512;2024-03-22T06:43:08;67.13;;;19.50;;
22486;SDS011;11410;53.046;10.512;2024-03-22T06:47:09;53.30;;;19.65;;
22486;SDS011;11410;53.046;10.512;2024-03-22T06:51:09;55.13;;;18.87;;
22486;SDS011;11410;53.046;10.512;2024-03-22T06:55:10;57.80;;;17.00;;
22486;SDS011;11410;53.046;10.512;2024-03-22T06:59:11;62.70;;;22.17;;
22486;SDS011;11410;53.046;10.512;2024-03-22T07:03:11;64.60;;;18.10;;
22486;SDS011;11410;53.046;10.512;2024-03-22T07:07:12;58.73;;;20.03;;
22486;SDS011;11410;53.046;10.512;2024-03-22T07:11:12;56.57;;;17.60;;
22486;SDS011;11410;53.046;10.512;2024-03-22T07:15:13;63.10;;;18.57;;
22486;SDS011;11410;53.046;10.512;2024-03-22T07:19:13;64.03;;;19.87;;
22486;SDS011;11410;53.046;10.512;2024-03-22T07:23:14;50.08;;;18.48;;
22486;SDS011;11410;53.046;10.512;2024-03-22T07:27:14;63.57;;;23.17;;
22486;SDS011;11410;53.046;10.512;2024-03-22T07:31:15;72.75;;;20.13;;
22486;SDS011;11410;53.046;10.512;2024-03-22T07:35:16;63.10;;;19.00;;
22486;SDS011;11410;53.046;10.512;2024-03-22T07:39:16;66.53;;;21.50;;
22486;SDS011;11410;53.046;10.512;2024-03-22T07:43:17;63.80;;;19.08;;
22486;SDS011;11410;53.046;10.512;2024-03-22T07:47:17;66.37;;;21.93;;
22486;SDS011;11410;53.046;10.512;2024-03-22T07:51:18;71.50;;;20.80;;
22486;SDS011;11410;53.046;10.512;2024-03-22T07:59:20;61.50;;;21.53;;
22486;SDS011;11410;53.046;10.512;2024-03-22T08:03:20;58.60;;;18.63;;
22486;SDS011;11410;53.046;10.512;2024-03-22T08:07:20;73.33;;;21.30;;
22486;SDS011;11410;53.046;10.512;2024-03-22T08:11:21;57.83;;;19.73;;
22486;SDS011;11410;53.046;10.512;2024-03-22T08:15:22;60.50;;;20.13;;
22486;SDS011;11410;53.046;10.512;2024-03-22T08:19:22;63.90;;;19.77;;
22486;SDS011;11410;53.046;10.512;2024-03-22T08:23:23;68.38;;;20.02;;
22486;SDS011;11410;53.046;10.512;2024-03-22T08:27:23;55.17;;;18.50;;
22486;SDS011;11410;53.046;10.512;2024-03-22T08:35:27;54.42;;;19.60;;
22486;SDS011;11410;53.046;10.512;2024-03-22T08:39:27;67.47;;;19.77;;
22486;SDS011;11410;53.046;10.512;2024-03-22T08:43:28;64.33;;;20.70;;
22486;SDS011;11410;53.046;10.512;2024-03-22T08:47:29;53.90;;;17.90;;
22486;SDS011;11410;53.046;10.512;2024-03-22T08:51:30;55.33;;;19.70;;
22486;SDS011;11410;53.046;10.512;2024-03-22T08:55:30;57.67;;;18.97;;
22486;SDS011;11410;53.046;10.512;2024-03-22T08:59:31;51.80;;;18.20;;
22486;SDS011;11410;53.046;10.512;2024-03-22T09:03:31;59.50;;;20.53;;
22486;SDS011;11410;53.046;10.512;2024-03-22T09:07:32;64.73;;;20.73;;
22486;SDS011;11410;53.046;10.512;2024-03-22T09:11:32;55.80;;;17.47;;
22486;SDS011;11410;53.046;10.512;2024-03-22T09:15:33;63.30;;;22.57;;
22486;SDS011;11410;53.046;10.512;2024-03-22T09:19:33;56.43;;;17.53;;
22486;SDS011;11410;53.046;10.512;2024-03-22T09:23:34;58.27;;;19.67;;
22486;SDS011;11410;53.046;10.512;2024-03-22T09:27:34;59.53;;;19.27;;
22486;SDS011;11410;53.046;10.512;2024-03-22T09:31:35;50.10;;;20.20;;
22486;SDS011;11410;53.046;10.512;2024-03-22T09:35:36;57.47;;;17.63;;
22486;SDS011;11410;53.046;10.512;2024-03-22T09:39:36;49.60;;;19.17;;
22486;SDS011;11410;53.046;10.512;2024-03-22T09:43:38;57.67;;;17.80;;
22486;SDS011;11410;53.046;10.512;2024-03-22T09:47:39;49.10;;;16.60;;
22486;SDS011;11410;53.046;10.512;2024-03-22T09:51:40;48.55;;;16.85;;
22486;SDS011;11410;53.046;10.512;2024-03-22T09:59:44;43.95;;;18.38;;
22486;SDS011;11410;53.046;10.512;2024-03-22T10:03:46;43.45;;;15.40;;
22486;SDS011;11410;53.046;10.512;2024-03-22T10:07:46;50.77;;;17.60;;
22486;SDS011;11410;53.046;10.512;2024-03-22T10:11:47;46.70;;;16.23;;
22486;SDS011;11410;53.046;10.512;2024-03-22T10:19:49;51.07;;;16.57;;
22486;SDS011;11410;53.046;10.512;2024-03-22T10:23:53;45.72;;;17.40;;
22486;SDS011;11410;53.046;10.512;2024-03-22T10:27:54;47.70;;;15.55;;
22486;SDS011;11410;53.046;10.512;2024-03-22T10:31:55;42.95;;;18.05;;
22486;SDS011;11410;53.046;10.512;2024-03-22T10:35:55;56.22;;;17.35;;
22486;SDS011;11410;53.046;10.512;2024-03-22T10:39:56;41.20;;;16.27;;
22486;SDS011;11410;53.046;10.512;2024-03-22T10:43:58;44.67;;;15.82;;
22486;SDS011;11410;53.046;10.512;2024-03-22T10:47:59;47.87;;;16.67;;
22486;SDS011;11410;53.046;10.512;2024-03-22T10:52:04;46.47;;;17.42;;
22486;SDS011;11410;53.046;10.512;2024-03-22T10:56:05;43.35;;;15.52;;
22486;SDS011;11410;53.046;10.512;2024-03-22T11:00:10;48.35;;;15.55;;
22486;SDS011;11410;53.046;10.512;2024-03-22T11:04:11;44.78;;;15.35;;
22486;SDS011;11410;53.046;10.512;2024-03-22T11:08:12;53.37;;;15.83;;
22486;SDS011;11410;53.046;10.512;2024-03-22T11:12:13;43.28;;;15.73;;
22486;SDS011;11410;53.046;10.512;2024-03-22T11:16:15;39.80;;;14.25;;
22486;SDS011;11410;53.046;10.512;2024-03-22T11:20:15;42.00;;;17.57;;
22486;SDS011;11410;53.046;10.512;2024-03-22T11:24:16;44.80;;;15.37;;
22486;SDS011;11410;53.046;10.512;2024-03-22T11:28:16;41.77;;;17.57;;
22486;SDS011;11410;53.046;10.512;2024-03-22T11:32:18;46.08;;;17.38;;
22486;SDS011;11410;53.046;10.512;2024-03-22T11:36:18;35.85;;;14.82;;
22486;SDS011;11410;53.046;10.512;2024-03-22T11:40:19;38.77;;;13.27;;
22486;SDS011;11410;53.046;10.512;2024-03-22T11:44:19;41.87;;;15.23;;
22486;SDS011;11410;53.046;10.512;2024-03-22T11:48:21;41.60;;;15.07;;
22486;SDS011;11410;53.046;10.512;2024-03-22T11:52:26;40.45;;;15.43;;
22486;SDS011;11410;53.046;10.512;2024-03-22T11:56:26;41.30;;;15.52;;
22486;SDS011;11410;53.046;10.512;2024-03-22T12:04:28;37.20;;;13.63;;
22486;SDS011;11410;53.046;10.512;2024-03-22T12:08:29;39.87;;;14.90;;
22486;SDS011;11410;53.046;10.512;2024-03-22T12:12:29;35.43;;;13.97;;
22486;SDS011;11410;53.046;10.512;2024-03-22T12:16:30;40.63;;;13.20;;
22486;SDS011;11410;53.046;10.512;2024-03-22T12:20:30;27.93;;;11.43;;
22486;SDS011;11410;53.046;10.512;2024-03-22T12:24:31;29.33;;;10.03;;
22486;SDS011;11410;53.046;10.512;2024-03-22T12:32:32;24.67;;;10.50;;
22486;SDS011;11410;53.046;10.512;2024-03-22T12:36:33;23.07;;;9.13;;
22486;SDS011;11410;53.046;10.512;2024-03-22T12:40:33;26.43;;;9.70;;
22486;SDS011;11410;53.046;10.512;2024-03-22T12:44:34;30.42;;;9.90;;
22486;SDS011;11410;53.046;10.512;2024-03-22T12:48:34;24.52;;;9.80;;
22486;SDS011;11410;53.046;10.512;2024-03-22T12:52:35;29.17;;;12.10;;
22486;SDS011;11410;53.046;10.512;2024-03-22T12:56:35;24.07;;;10.60;;
22486;SDS011;11410;53.046;10.512;2024-03-22T13:00:39;27.40;;;9.73;;
22486;SDS011;11410;53.046;10.512;2024-03-22T13:04:39;20.30;;;9.87;;
22486;SDS011;11410;53.046;10.512;2024-03-22T13:08:40;15.47;;;6.77;;
22486;SDS011;11410;53.046;10.512;2024-03-22T13:12:40;20.80;;;6.93;;
22486;SDS011;11410;53.046;10.512;2024-03-22T13:16:41;16.93;;;7.27;;
22486;SDS011;11410;53.046;10.512;2024-03-22T13:20:42;21.67;;;7.40;;
22486;SDS011;11410;53.046;10.512;2024-03-22T13:24:42;13.10;;;5.67;;
22486;SDS011;11410;53.046;10.512;2024-03-22T13:28:42;19.50;;;7.20;;
22486;SDS011;11410;53.046;10.512;2024-03-22T13:32:43;23.48;;;6.90;;
22486;SDS011;11410;53.046;10.512;2024-03-22T13:36:44;26.60;;;6.77;;
22486;SDS011;11410;53.046;10.512;2024-03-22T13:40:52;18.23;;;7.17;;
22486;SDS011;11410;53.046;10.512;2024-03-22T13:44:52;23.48;;;8.32;;
22486;SDS011;11410;53.046;10.512;2024-03-22T13:48:53;18.58;;;7.07;;
22486;SDS011;11410;53.046;10.512;2024-03-22T13:52:53;14.63;;;6.27;;
22486;SDS011;11410;53.046;10.512;2024-03-22T13:56:54;15.87;;;6.83;;
22486;SDS011;11410;53.046;10.512;2024-03-22T14:00:54;26.77;;;6.93;;
22486;SDS011;11410;53.046;10.512;2024-03-22T14:04:55;16.00;;;5.17;;
22486;SDS011;11410;53.046;10.512;2024-03-22T14:08:55;15.83;;;5.50;;
22486;SDS011;11410;53.046;10.512;2024-03-22T14:13:01;17.08;;;5.75;;
22486;SDS011;11410;53.046;10.512;2024-03-22T14:17:01;17.60;;;6.68;;
22486;SDS011;11410;53.046;10.512;2024-03-22T14:21:02;16.90;;;4.95;;
22486;SDS011;11410;53.046;10.512;2024-03-22T14:25:03;16.77;;;5.57;;
22486;SDS011;11410;53.046;10.512;2024-03-22T14:29:04;9.35;;;4.78;;
22486;SDS011;11410;53.046;10.512;2024-03-22T14:33:04;19.03;;;5.47;;
22486;SDS011;11410;53.046;10.512;2024-03-22T14:37:05;16.60;;;5.53;;
22486;SDS011;11410;53.046;10.512;2024-03-22T14:41:07;16.38;;;5.55;;
22486;SDS011;11410;53.046;10.512;2024-03-22T14:45:07;13.32;;;5.65;;
22486;SDS011;11410;53.046;10.512;2024-03-22T14:49:11;14.70;;;6.00;;
22486;SDS011;11410;53.046;10.512;2024-03-22T14:53:12;16.75;;;5.53;;
22486;SDS011;11410;53.046;10.512;2024-03-22T14:57:12;12.37;;;5.77;;
22486;SDS011;11410;53.046;10.512;2024-03-22T15:01:13;12.90;;;6.20;;
22486;SDS011;11410;53.046;10.512;2024-03-22T15:05:13;12.20;;;4.57;;
22486;SDS011;11410;53.046;10.512;2024-03-22T15:09:14;12.20;;;5.27;;
22486;SDS011;11410;53.046;10.512;2024-03-22T15:13:15;15.10;;;6.00;;
22486;SDS011;11410;53.046;10.512;2024-03-22T15:17:15;11.80;;;4.93;;
22486;SDS011;11410;53.046;10.512;2024-03-22T15:21:22;13.40;;;4.68;;
22486;SDS011;11410;53.046;10.512;2024-03-22T15:25:23;15.87;;;6.27;;
22486;SDS011;11410;53.046;10.512;2024-03-22T15:29:23;13.47;;;5.37;;
22486;SDS011;11410;53.046;10.512;2024-03-22T15:33:24;14.55;;;6.65;;
22486;SDS011;11410;53.046;10.512;2024-03-22T15:37:24;15.90;;;6.20;;
22486;SDS011;11410;53.046;10.512;2024-03-22T15:41:25;15.67;;;6.30;;
22486;SDS011;11410;53.046;10.512;2024-03-22T15:45:26;13.97;;;5.43;;
22486;SDS011;11410;53.046;10.512;2024-03-22T15:53:27;13.77;;;6.00;;
22486;SDS011;11410;53.046;10.512;2024-03-22T15:57:28;13.80;;;5.82;;
22486;SDS011;11410;53.046;10.512;2024-03-22T16:01:28;14.27;;;5.63;;
22486;SDS011;11410;53.046;10.512;2024-03-22T16:05:29;14.03;;;6.93;;
22486;SDS011;11410;53.046;10.512;2024-03-22T16:09:30;14.03;;;5.60;;
22486;SDS011;11410;53.046;10.512;2024-03-22T16:13:30;17.85;;;5.25;;
22486;SDS011;11410;53.046;10.512;2024-03-22T16:17:31;8.93;;;4.63;;
22486;SDS011;11410;53.046;10.512;2024-03-22T16:21:31;12.53;;;5.20;;
22486;SDS011;11410;53.046;10.512;2024-03-22T16:25:35;11.68;;;4.63;;
22486;SDS011;11410;53.046;10.512;2024-03-22T16:29:36;9.45;;;4.32;;
22486;SDS011;11410;53.046;10.512;2024-03-22T16:33:37;10.43;;;4.50;;
22486;SDS011;11410;53.046;10.512;2024-03-22T16:37:37;10.23;;;4.73;;
22486;SDS011;11410;53.046;10.512;2024-03-22T16:41:38;9.17;;;3.77;;
22486;SDS011;11410;53.046;10.512;2024-03-22T16:45:38;11.17;;;4.20;;
22486;SDS011;11410;53.046;10.512;2024-03-22T16:49:39;8.80;;;3.78;;
22486;SDS011;11410;53.046;10.512;2024-03-22T16:53:40;10.30;;;4.47;;
22486;SDS011;11410;53.046;10.512;2024-03-22T16:57:41;4.18;;;2.40;;
22486;SDS011;11410;53.046;10.512;2024-03-22T17:01:41;3.00;;;1.67;;
22486;SDS011;11410;53.046;10.512;2024-03-22T17:05:41;2.20;;;1.53;;
22486;SDS011;11410;53.046;10.512;2024-03-22T17:09:42;5.28;;;1.40;;
22486;SDS011;11410;53.046;10.512;2024-03-22T17:13:43;2.87;;;1.47;;
22486;SDS011;11410;53.046;10.512;2024-03-22T17:17:44;53.42;;;18.90;;
22486;SDS011;11410;53.046;10.512;2024-03-22T17:21:44;12.57;;;6.18;;
22486;SDS011;11410;53.046;10.512;2024-03-22T17:25:45;10.23;;;2.93;;
22486;SDS011;11410;53.046;10.512;2024-03-22T17:29:45;14.50;;;4.17;;
22486;SDS011;11410;53.046;10.512;2024-03-22T17:33:46;14.27;;;2.17;;
22486;SDS011;11410;53.046;10.512;2024-03-22T17:37:47;3.90;;;1.48;;
22486;SDS011;11410;53.046;10.512;2024-03-22T17:41:48;7.18;;;2.33;;
22486;SDS011;11410;53.046;10.512;2024-03-22T17:45:58;6.00;;;0.87;;
22486;SDS011;11410;53.046;10.512;2024-03-22T17:49:58;5.45;;;1.45;;
22486;SDS011;11410;53.046;10.512;2024-03-22T17:54:00;2.47;;;0.65;;
22486;SDS011;11410;53.046;10.512;2024-03-22T17:58:00;1.13;;;1.00;;
22486;SDS011;11410;53.046;10.512;2024-03-22T18:02:01;10.90;;;1.38;;
22486;SDS011;11410;53.046;10.512;2024-03-22T18:06:01;3.20;;;1.13;;
22486;SDS011;11410;53.046;10.512;2024-03-22T18:10:04;3.00;;;1.90;;
22486;SDS011;11410;53.046;10.512;2024-03-22T18:14:05;3.10;;;1.35;;
22486;SDS011;11410;53.046;10.512;2024-03-22T18:18:06;5.90;;;1.20;;
22486;SDS011;11410;53.046;10.512;2024-03-22T18:22:07;12.13;;;1.48;;
22486;SDS011;11410;53.046;10.512;2024-03-22T18:26:08;11.90;;;1.77;;
22486;SDS011;11410;53.046;10.512;2024-03-22T18:30:09;3.63;;;1.50;;
22486;SDS011;11410;53.046;10.512;2024-03-22T18:34:09;18.25;;;2.03;;
22486;SDS011;11410;53.046;10.512;2024-03-22T18:38:10;9.23;;;1.53;;
22486;SDS011;11410;53.046;10.512;2024-03-22T18:42:11;12.52;;;1.38;;
22486;SDS011;11410;53.046;10.512;2024-03-22T18:46:11;15.88;;;2.55;;
22486;SDS011;11410;53.046;10.512;2024-03-22T18:50:12;19.57;;;1.53;;
22486;SDS011;11410;53.046;10.512;2024-03-22T18:54:12;4.10;;;1.50;;
22486;SDS011;11410;53.046;10.512;2024-03-22T18:58:14;13.20;;;2.35;;
22486;SDS011;11410;53.046;10.512;2024-03-22T19:02:15;11.23;;;1.65;;
22486;SDS011;11410;53.046;10.512;2024-03-22T19:06:15;12.23;;;2.13;;
22486;SDS011;11410;53.046;10.512;2024-03-22T19:10:16;7.18;;;1.33;;
22486;SDS011;11410;53.046;10.512;2024-03-22T19:14:17;8.30;;;1.50;;
22486;SDS011;11410;53.046;10.512;2024-03-22T19:18:17;9.47;;;1.87;;
22486;SDS011;11410;53.046;10.512;2024-03-22T19:22:22;12.50;;;1.70;;
22486;SDS011;11410;53.046;10.512;2024-03-22T19:26:22;11.85;;;2.28;;
22486;SDS011;11410;53.046;10.512;2024-03-22T19:30:23;14.87;;;1.83;;
22486;SDS011;11410;53.046;10.512;2024-03-22T19:34:23;10.70;;;2.60;;
22486;SDS011;11410;53.046;10.512;2024-03-22T19:38:24;6.60;;;2.73;;
22486;SDS011;11410;53.046;10.512;2024-03-22T19:42:24;11.13;;;2.53;;
22486;SDS011;11410;53.046;10.512;2024-03-22T19:46:25;4.83;;;1.47;;
22486;SDS011;11410;53.046;10.512;2024-03-22T19:50:26;8.35;;;1.55;;
22486;SDS011;11410;53.046;10.512;2024-03-22T19:54:27;6.97;;;2.28;;
22486;SDS011;11410;53.046;10.512;2024-03-22T19:58:27;4.80;;;1.33;;
22486;SDS011;11410;53.046;10.512;2024-03-22T20:02:28;12.63;;;2.38;;
22486;SDS011;11410;53.046;10.512;2024-03-22T20:06:29;7.60;;;1.75;;
22486;SDS011;11410;53.046;10.512;2024-03-22T20:10:29;10.13;;;1.53;;
22486;SDS011;11410;53.046;10.512;2024-03-22T20:14:31;5.45;;;1.27;;
22486;SDS011;11410;53.046;10.512;2024-03-22T20:18:33;10.02;;;2.28;;
22486;SDS011;11410;53.046;10.512;2024-03-22T20:22:34;16.50;;;1.97;;
22486;SDS011;11410;53.046;10.512;2024-03-22T20:26:34;4.80;;;1.80;;
22486;SDS011;11410;53.046;10.512;2024-03-22T20:30:38;7.10;;;1.50;;
22486;SDS011;11410;53.046;10.512;2024-03-22T20:34:38;7.78;;;1.65;;
